sensor_id;sensor_type;location;lat;lon;timestamp;P1;durP1;ratioP1;P2;durP2;ratioP2
75512;SDS011;64090;49.770;18.760;2023-10-19T00:21:27;8.40;;;4.20;;
75512;SDS011;64090;49.770;18.760;2023-10-19T01:19:16;6.00;;;3.80;;
75512;SDS011;64090;49.770;18.760;2023-10-19T01:49:46;5.60;;;2.80;;
75512;SDS011;64090;49.770;18.760;2023-10-19T04:18:58;7.10;;;4.70;;
75512;SDS011;64090;49.770;18.760;2023-10-19T04:50:22;7.50;;;4.60;;
75512;SDS011;64090;49.770;18.760;2023-10-19T05:19:42;5.90;;;3.80;;
75512;SDS011;64090;49.770;18.760;2023-10-19T05:51:20;9.10;;;4.40;;
75512;SDS011;64090;49.770;18.760;2023-10-19T06:47:31;5.80;;;4.00;;
75512;SDS011;64090;49.770;18.760;2023-10-19T06:53:15;3.50;;;2.70;;
75512;SDS011;64090;49.770;18.760;2023-10-19T06:57:27;6.20;;;3.90;;
75512;SDS011;64090;49.770;18.760;2023-10-19T07:01:29;5.10;;;3.70;;
75512;SDS011;64090;49.770;18.760;2023-10-19T07:05:22;4.50;;;3.50;;
75512;SDS011;64090;49.770;18.760;2023-10-19T07:14:12;6.80;;;4.60;;
75512;SDS011;64090;49.770;18.760;2023-10-19T07:18:17;6.20;;;4.70;;
75512;SDS011;64090;49.770;18.760;2023-10-19T07:22:25;5.70;;;4.20;;
75512;SDS011;64090;49.770;18.760;2023-10-19T07:31:33;6.70;;;4.60;;
75512;SDS011;64090;49.770;18.760;2023-10-19T07:39:27;5.80;;;4.00;;
75512;SDS011;64090;49.770;18.760;2023-10-19T07:43:13;6.20;;;4.20;;
75512;SDS011;64090;49.770;18.760;2023-10-19T07:47:41;4.60;;;3.20;;
75512;SDS011;64090;49.770;18.760;2023-10-19T07:51:36;4.70;;;3.70;;
75512;SDS011;64090;49.770;18.760;2023-10-19T07:54:54;5.80;;;3.80;;
75512;SDS011;64090;49.770;18.760;2023-10-19T07:58:23;5.80;;;4.20;;
75512;SDS011;64090;49.770;18.760;2023-10-19T08:01:57;5.90;;;4.60;;
75512;SDS011;64090;49.770;18.760;2023-10-19T08:05:40;5.90;;;4.20;;
75512;SDS011;64090;49.770;18.760;2023-10-19T08:09:28;6.20;;;4.40;;
75512;SDS011;64090;49.770;18.760;2023-10-19T08:12:58;5.80;;;4.70;;
75512;SDS011;64090;49.770;18.760;2023-10-19T08:16:48;5.40;;;3.10;;
75512;SDS011;64090;49.770;18.760;2023-10-19T08:20:20;6.40;;;4.20;;
75512;SDS011;64090;49.770;18.760;2023-10-19T08:24:04;5.50;;;4.00;;
75512;SDS011;64090;49.770;18.760;2023-10-19T08:27:39;6.40;;;4.10;;
75512;SDS011;64090;49.770;18.760;2023-10-19T08:32:05;6.10;;;3.80;;
75512;SDS011;64090;49.770;18.760;2023-10-19T08:35:42;5.40;;;4.40;;
75512;SDS011;64090;49.770;18.760;2023-10-19T08:39:43;7.40;;;4.00;;
75512;SDS011;64090;49.770;18.760;2023-10-19T08:43:45;6.10;;;3.40;;
75512;SDS011;64090;49.770;18.760;2023-10-19T08:47:37;5.40;;;4.10;;
75512;SDS011;64090;49.770;18.760;2023-10-19T08:51:36;6.20;;;3.80;;
75512;SDS011;64090;49.770;18.760;2023-10-19T08:55:09;5.60;;;4.30;;
75512;SDS011;64090;49.770;18.760;2023-10-19T08:59:22;5.00;;;3.80;;
75512;SDS011;64090;49.770;18.760;2023-10-19T09:03:02;6.70;;;4.50;;
75512;SDS011;64090;49.770;18.760;2023-10-19T09:06:41;7.00;;;4.50;;
75512;SDS011;64090;49.770;18.760;2023-10-19T09:10:24;6.50;;;4.80;;
75512;SDS011;64090;49.770;18.760;2023-10-19T09:14:14;3.90;;;3.10;;
75512;SDS011;64090;49.770;18.760;2023-10-19T09:24:56;5.80;;;4.10;;
75512;SDS011;64090;49.770;18.760;2023-10-19T09:28:37;6.20;;;4.90;;
75512;SDS011;64090;49.770;18.760;2023-10-19T09:32:18;5.30;;;4.20;;
75512;SDS011;64090;49.770;18.760;2023-10-19T09:39:16;5.90;;;4.40;;
75512;SDS011;64090;49.770;18.760;2023-10-19T09:42:52;6.40;;;4.30;;
75512;SDS011;64090;49.770;18.760;2023-10-19T09:46:29;5.00;;;3.40;;
75512;SDS011;64090;49.770;18.760;2023-10-19T09:50:24;5.30;;;3.80;;
75512;SDS011;64090;49.770;18.760;2023-10-19T09:57:59;6.20;;;5.00;;
75512;SDS011;64090;49.770;18.760;2023-10-19T10:01:28;7.70;;;4.60;;
75512;SDS011;64090;49.770;18.760;2023-10-19T10:05:46;5.30;;;3.90;;
75512;SDS011;64090;49.770;18.760;2023-10-19T10:09:19;6.50;;;4.70;;
75512;SDS011;64090;49.770;18.760;2023-10-19T10:12:52;6.50;;;4.40;;
75512;SDS011;64090;49.770;18.760;2023-10-19T10:17:32;5.10;;;4.10;;
75512;SDS011;64090;49.770;18.760;2023-10-19T10:21:19;7.50;;;4.80;;
75512;SDS011;64090;49.770;18.760;2023-10-19T10:24:45;5.60;;;4.40;;
75512;SDS011;64090;49.770;18.760;2023-10-19T10:28:12;5.40;;;4.30;;
75512;SDS011;64090;49.770;18.760;2023-10-19T10:31:49;5.90;;;4.00;;
75512;SDS011;64090;49.770;18.760;2023-10-19T10:39:24;4.50;;;3.50;;
75512;SDS011;64090;49.770;18.760;2023-10-19T10:43:10;5.90;;;4.50;;
75512;SDS011;64090;49.770;18.760;2023-10-19T10:46:52;5.00;;;3.70;;
75512;SDS011;64090;49.770;18.760;2023-10-19T10:50:37;5.50;;;4.20;;
75512;SDS011;64090;49.770;18.760;2023-10-19T10:53:53;5.30;;;4.40;;
75512;SDS011;64090;49.770;18.760;2023-10-19T10:57:18;5.80;;;4.70;;
75512;SDS011;64090;49.770;18.760;2023-10-19T11:00:52;6.10;;;4.90;;
75512;SDS011;64090;49.770;18.760;2023-10-19T11:04:20;5.00;;;3.90;;
75512;SDS011;64090;49.770;18.760;2023-10-19T11:08:09;5.60;;;3.80;;
75512;SDS011;64090;49.770;18.760;2023-10-19T11:11:52;6.50;;;4.50;;
75512;SDS011;64090;49.770;18.760;2023-10-19T11:15:48;7.40;;;4.10;;
75512;SDS011;64090;49.770;18.760;2023-10-19T11:19:18;4.90;;;4.00;;
75512;SDS011;64090;49.770;18.760;2023-10-19T11:22:53;5.10;;;4.20;;
75512;SDS011;64090;49.770;18.760;2023-10-19T11:26:22;4.80;;;3.70;;
75512;SDS011;64090;49.770;18.760;2023-10-19T11:29:56;4.70;;;3.00;;
75512;SDS011;64090;49.770;18.760;2023-10-19T11:33:54;5.80;;;4.10;;
75512;SDS011;64090;49.770;18.760;2023-10-19T11:37:47;5.80;;;4.50;;
75512;SDS011;64090;49.770;18.760;2023-10-19T11:41:19;4.80;;;3.50;;
75512;SDS011;64090;49.770;18.760;2023-10-19T11:44:44;5.40;;;3.60;;
75512;SDS011;64090;49.770;18.760;2023-10-19T11:48:36;5.70;;;4.30;;
75512;SDS011;64090;49.770;18.760;2023-10-19T11:52:13;5.60;;;4.30;;
75512;SDS011;64090;49.770;18.760;2023-10-19T11:55:56;5.40;;;3.40;;
75512;SDS011;64090;49.770;18.760;2023-10-19T11:59:12;5.30;;;4.10;;
75512;SDS011;64090;49.770;18.760;2023-10-19T12:02:36;5.40;;;4.10;;
75512;SDS011;64090;49.770;18.760;2023-10-19T12:06:06;6.10;;;4.60;;
75512;SDS011;64090;49.770;18.760;2023-10-19T12:09:33;5.60;;;4.10;;
75512;SDS011;64090;49.770;18.760;2023-10-19T12:13:18;6.10;;;4.00;;
75512;SDS011;64090;49.770;18.760;2023-10-19T12:17:30;4.90;;;3.90;;
75512;SDS011;64090;49.770;18.760;2023-10-19T12:21:01;5.20;;;3.80;;
75512;SDS011;64090;49.770;18.760;2023-10-19T12:24:34;5.50;;;3.90;;
75512;SDS011;64090;49.770;18.760;2023-10-19T12:27:53;6.30;;;4.00;;
75512;SDS011;64090;49.770;18.760;2023-10-19T12:31:18;5.40;;;3.70;;
75512;SDS011;64090;49.770;18.760;2023-10-19T12:34:51;5.30;;;3.90;;
75512;SDS011;64090;49.770;18.760;2023-10-19T12:38:22;6.20;;;4.70;;
75512;SDS011;64090;49.770;18.760;2023-10-19T12:42:08;5.90;;;3.80;;
75512;SDS011;64090;49.770;18.760;2023-10-19T12:45:55;6.00;;;5.00;;
75512;SDS011;64090;49.770;18.760;2023-10-19T12:49:37;6.10;;;4.30;;
75512;SDS011;64090;49.770;18.760;2023-10-19T12:53:13;6.50;;;4.30;;
75512;SDS011;64090;49.770;18.760;2023-10-19T12:57:01;4.20;;;2.60;;
75512;SDS011;64090;49.770;18.760;2023-10-19T13:00:31;4.70;;;3.50;;
75512;SDS011;64090;49.770;18.760;2023-10-19T13:04:20;6.40;;;4.50;;
75512;SDS011;64090;49.770;18.760;2023-10-19T13:08:23;6.20;;;5.00;;
75512;SDS011;64090;49.770;18.760;2023-10-19T13:12:10;6.70;;;4.50;;
75512;SDS011;64090;49.770;18.760;2023-10-19T13:15:42;6.80;;;4.80;;
75512;SDS011;64090;49.770;18.760;2023-10-19T13:19:41;6.20;;;4.50;;
75512;SDS011;64090;49.770;18.760;2023-10-19T13:23:22;5.80;;;3.60;;
75512;SDS011;64090;49.770;18.760;2023-10-19T13:26:51;6.80;;;4.50;;
75512;SDS011;64090;49.770;18.760;2023-10-19T13:33:28;6.80;;;4.40;;
75512;SDS011;64090;49.770;18.760;2023-10-19T13:37:13;7.40;;;4.30;;
75512;SDS011;64090;49.770;18.760;2023-10-19T13:41:11;7.20;;;5.00;;
75512;SDS011;64090;49.770;18.760;2023-10-19T13:45:33;7.80;;;4.90;;
75512;SDS011;64090;49.770;18.760;2023-10-19T13:49:28;6.80;;;5.40;;
75512;SDS011;64090;49.770;18.760;2023-10-19T13:53:30;6.40;;;4.90;;
75512;SDS011;64090;49.770;18.760;2023-10-19T13:57:15;7.10;;;5.80;;
75512;SDS011;64090;49.770;18.760;2023-10-19T14:00:50;6.90;;;5.30;;
75512;SDS011;64090;49.770;18.760;2023-10-19T14:04:44;9.50;;;6.20;;
75512;SDS011;64090;49.770;18.760;2023-10-19T14:08:50;9.30;;;6.50;;
75512;SDS011;64090;49.770;18.760;2023-10-19T14:12:41;7.90;;;5.40;;
75512;SDS011;64090;49.770;18.760;2023-10-19T14:16:38;8.20;;;5.90;;
75512;SDS011;64090;49.770;18.760;2023-10-19T14:20:46;8.20;;;5.20;;
75512;SDS011;64090;49.770;18.760;2023-10-19T14:24:52;7.20;;;5.70;;
75512;SDS011;64090;49.770;18.760;2023-10-19T14:29:07;8.50;;;5.80;;
75512;SDS011;64090;49.770;18.760;2023-10-19T14:33:55;7.80;;;5.70;;
75512;SDS011;64090;49.770;18.760;2023-10-19T14:37:59;10.20;;;7.60;;
75512;SDS011;64090;49.770;18.760;2023-10-19T14:41:59;8.10;;;6.30;;
75512;SDS011;64090;49.770;18.760;2023-10-19T14:45:55;10.10;;;7.10;;
75512;SDS011;64090;49.770;18.760;2023-10-19T14:50:03;9.50;;;6.70;;
75512;SDS011;64090;49.770;18.760;2023-10-19T14:53:46;10.20;;;7.20;;
75512;SDS011;64090;49.770;18.760;2023-10-19T14:57:43;9.40;;;7.00;;
75512;SDS011;64090;49.770;18.760;2023-10-19T15:01:28;10.70;;;7.10;;
75512;SDS011;64090;49.770;18.760;2023-10-19T15:05:23;12.60;;;8.90;;
75512;SDS011;64090;49.770;18.760;2023-10-19T15:09:37;13.50;;;8.50;;
75512;SDS011;64090;49.770;18.760;2023-10-19T15:13:56;11.60;;;8.20;;
75512;SDS011;64090;49.770;18.760;2023-10-19T15:18:00;12.30;;;7.80;;
75512;SDS011;64090;49.770;18.760;2023-10-19T15:22:14;12.80;;;8.20;;
75512;SDS011;64090;49.770;18.760;2023-10-19T15:25:56;10.90;;;7.60;;
75512;SDS011;64090;49.770;18.760;2023-10-19T15:29:44;14.80;;;10.50;;
75512;SDS011;64090;49.770;18.760;2023-10-19T15:37:50;12.80;;;8.70;;
75512;SDS011;64090;49.770;18.760;2023-10-19T15:42:01;13.10;;;8.70;;
75512;SDS011;64090;49.770;18.760;2023-10-19T15:45:34;13.60;;;9.70;;
75512;SDS011;64090;49.770;18.760;2023-10-19T15:49:24;12.90;;;9.10;;
75512;SDS011;64090;49.770;18.760;2023-10-19T15:53:47;12.90;;;9.80;;
75512;SDS011;64090;49.770;18.760;2023-10-19T15:57:56;10.70;;;7.80;;
75512;SDS011;64090;49.770;18.760;2023-10-19T16:02:30;10.70;;;7.40;;
75512;SDS011;64090;49.770;18.760;2023-10-19T16:06:10;10.60;;;7.30;;
75512;SDS011;64090;49.770;18.760;2023-10-19T16:10:48;10.40;;;8.10;;
75512;SDS011;64090;49.770;18.760;2023-10-19T16:14:19;11.70;;;7.50;;
75512;SDS011;64090;49.770;18.760;2023-10-19T16:18:22;11.90;;;8.20;;
75512;SDS011;64090;49.770;18.760;2023-10-19T16:22:22;10.40;;;7.40;;
75512;SDS011;64090;49.770;18.760;2023-10-19T16:25:57;13.40;;;8.70;;
75512;SDS011;64090;49.770;18.760;2023-10-19T16:29:38;12.50;;;9.20;;
75512;SDS011;64090;49.770;18.760;2023-10-19T16:33:10;11.10;;;8.80;;
75512;SDS011;64090;49.770;18.760;2023-10-19T16:45:05;11.90;;;8.60;;
75512;SDS011;64090;49.770;18.760;2023-10-19T16:48:34;12.20;;;9.00;;
75512;SDS011;64090;49.770;18.760;2023-10-19T16:52:15;11.40;;;8.00;;
75512;SDS011;64090;49.770;18.760;2023-10-19T16:55:56;11.60;;;8.00;;
75512;SDS011;64090;49.770;18.760;2023-10-19T16:59:46;13.50;;;8.70;;
75512;SDS011;64090;49.770;18.760;2023-10-19T17:03:30;13.60;;;9.10;;
75512;SDS011;64090;49.770;18.760;2023-10-19T17:07:07;12.10;;;8.40;;
75512;SDS011;64090;49.770;18.760;2023-10-19T17:11:01;13.30;;;8.90;;
75512;SDS011;64090;49.770;18.760;2023-10-19T17:14:28;12.90;;;9.80;;
75512;SDS011;64090;49.770;18.760;2023-10-19T17:18:06;11.30;;;9.20;;
75512;SDS011;64090;49.770;18.760;2023-10-19T17:24:27;15.00;;;10.00;;
75512;SDS011;64090;49.770;18.760;2023-10-19T17:28:09;12.60;;;9.90;;
75512;SDS011;64090;49.770;18.760;2023-10-19T17:31:53;13.80;;;10.20;;
75512;SDS011;64090;49.770;18.760;2023-10-19T17:35:27;12.30;;;8.30;;
75512;SDS011;64090;49.770;18.760;2023-10-19T17:38:53;14.00;;;9.60;;
75512;SDS011;64090;49.770;18.760;2023-10-19T17:42:26;14.30;;;10.40;;
75512;SDS011;64090;49.770;18.760;2023-10-19T17:46:31;13.80;;;9.80;;
75512;SDS011;64090;49.770;18.760;2023-10-19T17:51:46;14.20;;;9.90;;
75512;SDS011;64090;49.770;18.760;2023-10-19T17:55:28;12.30;;;8.70;;
75512;SDS011;64090;49.770;18.760;2023-10-19T17:59:07;11.20;;;9.30;;
75512;SDS011;64090;49.770;18.760;2023-10-19T18:02:41;16.40;;;10.90;;
75512;SDS011;64090;49.770;18.760;2023-10-19T18:06:35;15.10;;;10.80;;
75512;SDS011;64090;49.770;18.760;2023-10-19T18:10:33;12.90;;;8.80;;
75512;SDS011;64090;49.770;18.760;2023-10-19T18:14:38;14.50;;;10.20;;
75512;SDS011;64090;49.770;18.760;2023-10-19T18:18:03;10.70;;;7.80;;
75512;SDS011;64090;49.770;18.760;2023-10-19T18:22:08;12.50;;;9.50;;
75512;SDS011;64090;49.770;18.760;2023-10-19T18:25:53;13.00;;;8.70;;
75512;SDS011;64090;49.770;18.760;2023-10-19T18:32:19;13.70;;;9.40;;
75512;SDS011;64090;49.770;18.760;2023-10-19T18:35:40;14.80;;;9.80;;
75512;SDS011;64090;49.770;18.760;2023-10-19T18:39:40;15.40;;;11.00;;
75512;SDS011;64090;49.770;18.760;2023-10-19T18:46:10;16.60;;;10.80;;
75512;SDS011;64090;49.770;18.760;2023-10-19T18:50:25;16.10;;;11.50;;
75512;SDS011;64090;49.770;18.760;2023-10-19T18:54:13;15.10;;;10.20;;
75512;SDS011;64090;49.770;18.760;2023-10-19T18:58:29;14.30;;;9.60;;
75512;SDS011;64090;49.770;18.760;2023-10-19T19:04:56;28.00;;;20.30;;
75512;SDS011;64090;49.770;18.760;2023-10-19T19:08:58;27.80;;;17.60;;
75512;SDS011;64090;49.770;18.760;2023-10-19T19:12:42;50.70;;;32.00;;
75512;SDS011;64090;49.770;18.760;2023-10-19T19:16:10;53.70;;;33.70;;
75512;SDS011;64090;49.770;18.760;2023-10-19T19:19:52;43.30;;;29.10;;
75512;SDS011;64090;49.770;18.760;2023-10-19T19:26:31;45.70;;;28.90;;
75512;SDS011;64090;49.770;18.760;2023-10-19T20:28:08;63.90;;;38.70;;
75512;SDS011;64090;49.770;18.760;2023-10-19T20:46:05;52.90;;;32.00;;
75512;SDS011;64090;49.770;18.760;2023-10-19T20:50:25;44.10;;;26.70;;
75512;SDS011;64090;49.770;18.760;2023-10-19T20:55:07;43.10;;;26.60;;
75512;SDS011;64090;49.770;18.760;2023-10-19T21:21:21;37.50;;;22.80;;
75512;SDS011;64090;49.770;18.760;2023-10-19T21:34:20;31.90;;;21.60;;
75512;SDS011;64090;49.770;18.760;2023-10-19T21:38:52;28.40;;;17.90;;
75512;SDS011;64090;49.770;18.760;2023-10-19T21:51:58;17.40;;;10.90;;
75512;SDS011;64090;49.770;18.760;2023-10-19T21:56:16;18.10;;;12.10;;
75512;SDS011;64090;49.770;18.760;2023-10-19T22:00:32;14.80;;;10.10;;
75512;SDS011;64090;49.770;18.760;2023-10-19T22:04:35;15.30;;;10.80;;
75512;SDS011;64090;49.770;18.760;2023-10-19T22:08:32;12.00;;;8.70;;
75512;SDS011;64090;49.770;18.760;2023-10-19T22:12:20;13.50;;;10.10;;
75512;SDS011;64090;49.770;18.760;2023-10-19T22:20:14;11.00;;;7.60;;
75512;SDS011;64090;49.770;18.760;2023-10-19T22:24:21;15.60;;;10.30;;
75512;SDS011;64090;49.770;18.760;2023-10-19T22:28:15;10.40;;;7.70;;
75512;SDS011;64090;49.770;18.760;2023-10-19T22:32:25;12.60;;;9.90;;
75512;SDS011;64090;49.770;18.760;2023-10-19T22:36:08;10.80;;;8.60;;
75512;SDS011;64090;49.770;18.760;2023-10-19T22:39:58;9.90;;;6.70;;
75512;SDS011;64090;49.770;18.760;2023-10-19T22:43:26;8.30;;;5.10;;
75512;SDS011;64090;49.770;18.760;2023-10-19T22:47:04;8.70;;;5.30;;
75512;SDS011;64090;49.770;18.760;2023-10-19T22:50:30;8.10;;;5.60;;
75512;SDS011;64090;49.770;18.760;2023-10-19T22:53:54;9.30;;;5.80;;
75512;SDS011;64090;49.770;18.760;2023-10-19T22:57:30;7.40;;;5.40;;
75512;SDS011;64090;49.770;18.760;2023-10-19T23:01:09;9.30;;;5.90;;
75512;SDS011;64090;49.770;18.760;2023-10-19T23:04:39;6.90;;;5.30;;
75512;SDS011;64090;49.770;18.760;2023-10-19T23:08:18;7.40;;;5.80;;
75512;SDS011;64090;49.770;18.760;2023-10-19T23:11:49;7.60;;;5.00;;
75512;SDS011;64090;49.770;18.760;2023-10-19T23:15:52;7.60;;;5.60;;
75512;SDS011;64090;49.770;18.760;2023-10-19T23:19:23;7.00;;;4.30;;
75512;SDS011;64090;49.770;18.760;2023-10-19T23:27:38;6.10;;;4.60;;
75512;SDS011;64090;49.770;18.760;2023-10-19T23:31:25;7.40;;;5.30;;
75512;SDS011;64090;49.770;18.760;2023-10-19T23:34:59;7.90;;;5.00;;
75512;SDS011;64090;49.770;18.760;2023-10-19T23:38:43;8.80;;;5.80;;
75512;SDS011;64090;49.770;18.760;2023-10-19T23:42:39;6.80;;;5.20;;
75512;SDS011;64090;49.770;18.760;2023-10-19T23:46:26;8.60;;;6.10;;
75512;SDS011;64090;49.770;18.760;2023-10-19T23:50:12;8.10;;;4.50;;
75512;SDS011;64090;49.770;18.760;2023-10-19T23:58:57;7.00;;;5.40;;
